createdAt,value
2017-09-20T00:02:12.838Z,20.77
2017-09-20T00:04:40.872Z,20.15
2017-09-20T00:07:08.892Z,25.55
2017-09-20T00:09:41.660Z,28.92
2017-09-20T00:12:09.688Z,27.70
2017-09-20T00:14:41.264Z,35.47
2017-09-20T00:17:17.599Z,31.15
2017-09-20T00:19:46.648Z,33.05
2017-09-20T00:22:26.112Z,28.17
2017-09-20T00:24:55.188Z,28.70
2017-09-20T00:27:25.164Z,33.85
2017-09-20T00:29:54.136Z,34.63
2017-09-20T00:32:24.167Z,21.25
2017-09-20T00:34:54.888Z,24.20
2017-09-20T00:37:23.892Z,25.37
2017-09-20T00:39:55.746Z,26.83
2017-09-20T00:42:28.440Z,26.33
2017-09-20T00:44:58.224Z,27.52
2017-09-20T00:47:38.764Z,29.25
2017-09-20T00:50:07.784Z,27.25
2017-09-20T00:53:00.084Z,28.90
2017-09-20T00:55:30.040Z,30.67
2017-09-20T00:58:01.711Z,27.17
2017-09-20T01:00:32.449Z,33.58
2017-09-20T01:03:11.255Z,31.50
2017-09-20T01:05:42.799Z,32.63
2017-09-20T01:08:10.852Z,26.73
2017-09-20T01:10:38.887Z,30.67
2017-09-20T01:13:06.919Z,23.85
2017-09-20T01:15:34.955Z,29.27
2017-09-20T01:18:27.079Z,34.03
2017-09-20T01:23:56.355Z,32.63
2017-09-20T01:26:28.203Z,26.00
2017-09-20T01:28:56.991Z,25.37
2017-09-20T01:31:26.783Z,27.95
2017-09-20T01:34:00.403Z,27.20
2017-09-20T01:36:34.191Z,27.48
2017-09-20T01:39:03.152Z,26.08
2017-09-20T01:41:33.106Z,27.40
2017-09-20T01:44:01.133Z,28.38
2017-09-20T01:46:29.155Z,28.87
2017-09-20T01:48:57.947Z,27.20
2017-09-20T01:51:29.807Z,28.77
2017-09-20T01:54:11.530Z,31.42
2017-09-20T01:56:41.311Z,31.10
2017-09-20T01:59:11.007Z,28.40
2017-09-20T02:01:42.979Z,27.48
2017-09-20T02:04:12.763Z,27.70
2017-09-20T02:06:40.798Z,29.70
2017-09-20T02:09:08.826Z,26.17
2017-09-20T02:11:38.611Z,23.27
2017-09-20T02:14:08.374Z,26.95
2017-09-20T02:16:38.331Z,26.48
2017-09-20T02:19:07.327Z,27.90
2017-09-20T02:21:36.331Z,25.95
2017-09-20T02:24:04.350Z,24.80
2017-09-20T02:26:33.274Z,22.62
2017-09-20T02:29:08.202Z,20.48
2017-09-20T02:31:36.226Z,22.85
2017-09-20T02:34:04.250Z,24.20
2017-09-20T02:36:37.723Z,23.05
2017-09-20T02:39:10.638Z,21.17
2017-09-20T02:41:38.678Z,21.50
2017-09-20T02:44:07.702Z,21.30
2017-09-20T02:46:35.722Z,21.33
2017-09-20T02:49:03.770Z,21.98
2017-09-20T02:51:33.543Z,20.48
2017-09-20T02:54:03.606Z,21.62
2017-09-20T02:56:31.637Z,23.20
2017-09-20T02:59:00.679Z,23.85
2017-09-20T03:01:31.478Z,22.13
2017-09-20T03:04:00.446Z,22.52
2017-09-20T03:06:29.442Z,22.15
2017-09-20T03:09:01.251Z,23.50
2017-09-20T03:11:32.957Z,21.62
2017-09-20T03:14:09.419Z,20.50
2017-09-20T03:16:37.454Z,21.48
2017-09-20T03:19:07.414Z,23.23
2017-09-20T03:21:41.705Z,22.42
2017-09-20T03:24:09.734Z,21.75
2017-09-20T03:26:49.195Z,22.00
2017-09-20T03:29:18.218Z,21.17
2017-09-20T03:31:47.218Z,23.08
2017-09-20T03:34:20.838Z,22.15
2017-09-20T03:36:49.813Z,22.62
2017-09-20T03:39:27.806Z,21.48
2017-09-20T03:42:00.591Z,20.75
2017-09-20T03:44:28.638Z,24.40
2017-09-20T03:47:01.150Z,22.20
2017-09-20T03:49:29.230Z,33.40
2017-09-20T03:52:00.342Z,36.05
2017-09-20T03:54:29.382Z,31.08
2017-09-20T03:57:01.922Z,37.30
2017-09-20T03:59:30.929Z,35.03
2017-09-20T04:01:59.897Z,26.27
2017-09-20T04:07:22.694Z,35.47
2017-09-20T04:09:51.510Z,37.63
2017-09-20T04:12:19.541Z,42.35
2017-09-20T04:14:48.528Z,34.63
2017-09-20T04:17:17.753Z,39.08
2017-09-20T04:19:45.858Z,33.28
2017-09-20T04:22:20.053Z,36.80
2017-09-20T04:24:48.097Z,36.00
2017-09-20T04:27:18.861Z,39.78
2017-09-20T04:29:51.597Z,28.75
2017-09-20T04:32:24.385Z,27.95
2017-09-20T04:34:52.420Z,28.40
2017-09-20T04:37:21.425Z,34.03
2017-09-20T04:39:54.275Z,34.85
2017-09-20T04:42:24.242Z,30.08
2017-09-20T04:44:54.253Z,29.02
2017-09-20T04:47:26.106Z,27.13
2017-09-20T04:49:55.142Z,29.40
2017-09-20T04:52:34.422Z,27.85
2017-09-20T04:55:07.368Z,28.20
2017-09-20T04:57:36.310Z,26.80
2017-09-20T05:00:18.885Z,27.85
2017-09-20T05:02:54.034Z,29.60
2017-09-20T05:05:28.721Z,28.40
2017-09-20T05:07:57.517Z,30.85
2017-09-20T05:10:25.541Z,29.80
2017-09-20T05:12:53.593Z,30.50
2017-09-20T05:15:31.585Z,27.90
2017-09-20T05:17:59.665Z,28.15
2017-09-20T05:20:28.672Z,26.60
2017-09-20T05:22:56.701Z,28.42
2017-09-20T05:25:31.761Z,28.98
2017-09-20T05:27:59.793Z,31.08
2017-09-20T05:30:27.825Z,25.65
2017-09-20T05:32:59.386Z,28.02
2017-09-20T05:35:28.633Z,27.20
2017-09-20T05:37:57.513Z,28.30
2017-09-20T05:40:25.569Z,30.50
2017-09-20T05:42:56.282Z,29.90
2017-09-20T05:45:26.304Z,29.40
2017-09-20T05:47:59.181Z,28.40
2017-09-20T05:50:27.253Z,28.67
2017-09-20T05:52:56.053Z,30.60
2017-09-20T05:55:24.856Z,30.02
2017-09-20T05:57:54.890Z,30.33
2017-09-20T06:00:24.864Z,28.20
2017-09-20T06:02:58.045Z,29.02
2017-09-20T06:05:26.233Z,29.77
2017-09-20T06:07:55.093Z,29.75
2017-09-20T06:10:29.920Z,28.85
2017-09-20T06:12:59.985Z,26.83
2017-09-20T06:15:33.036Z,27.52
2017-09-20T06:18:01.112Z,29.25
2017-09-20T06:20:30.162Z,31.45
2017-09-20T06:22:58.368Z,29.08
2017-09-20T06:25:29.927Z,32.75
2017-09-20T06:27:59.961Z,29.10
2017-09-20T06:30:36.981Z,33.22
2017-09-20T06:33:05.036Z,32.25
2017-09-20T06:35:33.064Z,32.33
2017-09-20T06:38:11.677Z,30.27
2017-09-20T06:40:40.684Z,32.88
2017-09-20T06:43:09.637Z,32.08
2017-09-20T06:45:37.689Z,31.83
2017-09-20T06:48:10.794Z,33.85
2017-09-20T06:50:40.804Z,34.20
2017-09-20T06:53:08.828Z,29.67
2017-09-20T06:55:41.257Z,30.30
2017-09-20T06:58:10.304Z,31.17
2017-09-20T07:00:43.180Z,30.95
2017-09-20T07:03:16.053Z,33.55
2017-09-20T07:05:47.918Z,34.08
2017-09-20T07:08:16.724Z,31.02
2017-09-20T07:10:47.443Z,32.35
2017-09-20T07:13:19.896Z,28.75
2017-09-20T07:15:47.932Z,31.65
2017-09-20T07:18:15.984Z,28.65
2017-09-20T07:20:44.008Z,31.30
2017-09-20T07:23:13.008Z,32.35
2017-09-20T07:25:41.808Z,29.30
2017-09-20T07:28:10.612Z,30.77
2017-09-20T07:30:38.672Z,32.13
2017-09-20T07:33:07.448Z,31.42
2017-09-20T07:35:37.256Z,29.45
2017-09-20T07:38:09.992Z,31.23
2017-09-20T07:40:38.019Z,28.38
2017-09-20T07:46:00.172Z,26.77
2017-09-20T07:48:31.708Z,28.80
2017-09-20T07:51:00.512Z,28.77
2017-09-20T07:53:28.552Z,25.05
2017-09-20T07:55:56.595Z,27.17
2017-09-20T07:58:25.605Z,25.37
2017-09-20T08:00:53.640Z,25.58
2017-09-20T08:03:24.668Z,22.23
2017-09-20T08:05:53.725Z,23.38
2017-09-20T08:08:32.003Z,24.40
2017-09-20T08:11:00.040Z,26.00
2017-09-20T08:13:33.324Z,23.98
2017-09-20T08:16:02.291Z,23.95
2017-09-20T08:18:31.992Z,18.27
2017-09-20T08:21:00.039Z,24.05
2017-09-20T08:23:28.085Z,22.80
2017-09-20T08:25:56.111Z,23.77
2017-09-20T08:28:28.275Z,23.20
2017-09-20T08:30:56.304Z,24.07
2017-09-20T08:33:24.359Z,24.40
2017-09-20T08:35:53.467Z,22.33
2017-09-20T08:38:32.115Z,22.73
2017-09-20T08:41:00.175Z,21.37
2017-09-20T08:43:28.230Z,21.80
2017-09-20T08:45:59.992Z,23.60
2017-09-20T08:48:31.767Z,23.40
2017-09-20T08:50:59.811Z,24.00
2017-09-20T08:53:29.788Z,19.90
2017-09-20T08:55:58.581Z,22.40
2017-09-20T08:58:27.374Z,17.80
2017-09-20T09:00:55.403Z,23.33
2017-09-20T09:03:28.487Z,22.33
2017-09-20T09:05:57.479Z,22.53
2017-09-20T09:08:31.880Z,22.07
2017-09-20T09:11:03.859Z,22.60
2017-09-20T09:13:31.903Z,21.27
2017-09-20T09:15:59.926Z,21.73
2017-09-20T09:18:29.711Z,20.27
2017-09-20T09:20:57.759Z,20.47
2017-09-20T09:23:32.587Z,19.60
2017-09-20T09:26:01.616Z,21.70
2017-09-20T09:28:36.139Z,19.47
2017-09-20T09:31:04.147Z,20.57
2017-09-20T09:33:37.799Z,17.83
2017-09-20T09:36:05.839Z,20.80
2017-09-20T09:38:42.310Z,18.30
2017-09-20T09:41:11.343Z,18.60
2017-09-20T09:43:56.849Z,16.87
2017-09-20T09:46:24.891Z,15.70
2017-09-20T09:48:52.914Z,8.93
2017-09-20T09:51:24.591Z,15.33
2017-09-20T09:53:59.142Z,15.30
2017-09-20T09:56:37.435Z,16.30
2017-09-20T09:59:10.967Z,15.87
2017-09-20T10:01:47.298Z,16.40
2017-09-20T10:04:20.978Z,11.70
2017-09-20T10:06:49.006Z,14.03
2017-09-20T10:09:20.690Z,16.73
2017-09-20T10:11:48.711Z,16.53
2017-09-20T10:14:16.754Z,19.10
2017-09-20T10:16:44.790Z,17.43
2017-09-20T10:19:12.863Z,19.50
2017-09-20T10:22:00.691Z,13.20
2017-09-20T10:24:28.734Z,17.83
2017-09-20T10:26:58.522Z,17.80
2017-09-20T10:29:27.544Z,18.43
2017-09-20T10:31:56.390Z,16.67
2017-09-20T10:34:29.335Z,14.80
2017-09-20T10:36:59.318Z,15.93
2017-09-20T10:39:30.858Z,14.43
2017-09-20T10:41:58.915Z,12.63
2017-09-20T10:44:28.878Z,12.93
2017-09-20T10:46:58.802Z,12.63
2017-09-20T10:49:28.790Z,12.70
2017-09-20T10:51:59.142Z,12.80
2017-09-20T10:54:34.706Z,14.83
2017-09-20T10:57:05.790Z,11.57
2017-09-20T10:59:39.593Z,15.70
2017-09-20T11:02:07.655Z,15.00
2017-09-20T11:04:48.718Z,13.70
2017-09-20T11:07:22.805Z,15.20
2017-09-20T11:09:57.538Z,15.50
2017-09-20T11:12:32.585Z,15.60
2017-09-20T11:15:01.606Z,16.10
2017-09-20T11:17:29.633Z,16.00
2017-09-20T11:19:57.766Z,15.63
2017-09-20T11:22:33.666Z,15.60
2017-09-20T11:25:18.089Z,15.37
2017-09-20T11:27:47.015Z,13.67
2017-09-20T11:30:15.066Z,13.93
2017-09-20T11:32:43.124Z,14.00
2017-09-20T11:35:11.161Z,15.67
2017-09-20T11:37:42.917Z,15.37
2017-09-20T11:40:10.977Z,12.87
2017-09-20T11:42:56.362Z,12.60
2017-09-20T11:45:25.278Z,12.80
2017-09-20T11:47:54.057Z,13.97
2017-09-20T11:50:28.029Z,13.70
2017-09-20T11:52:56.057Z,11.27
2017-09-20T11:55:24.089Z,11.73
2017-09-20T11:57:57.601Z,13.00
2017-09-20T12:00:26.393Z,13.37
2017-09-20T12:02:56.109Z,12.80
2017-09-20T12:05:24.121Z,12.07
2017-09-20T12:07:52.157Z,11.37
2017-09-20T12:10:20.185Z,13.10
2017-09-20T12:12:48.225Z,12.70
2017-09-20T12:15:16.269Z,11.70
2017-09-20T12:17:44.305Z,11.17
2017-09-20T12:20:13.122Z,10.90
2017-09-20T12:22:42.041Z,10.03
2017-09-20T12:25:10.101Z,10.80
2017-09-20T12:27:38.917Z,10.60
2017-09-20T12:30:07.945Z,13.20
2017-09-20T12:32:41.529Z,8.57
2017-09-20T12:35:10.517Z,10.37
2017-09-20T12:37:38.545Z,10.13
2017-09-20T12:40:07.529Z,9.80
2017-09-20T12:42:35.573Z,10.50
2017-09-20T12:45:03.580Z,12.07
2017-09-20T12:47:31.678Z,11.60
2017-09-20T12:50:00.668Z,10.03
2017-09-20T12:52:31.751Z,10.43
2017-09-20T12:55:00.529Z,9.77
2017-09-20T12:57:29.493Z,6.90
2017-09-20T12:59:57.524Z,6.43
2017-09-20T13:02:30.976Z,7.07
2017-09-20T13:04:59.005Z,6.53
2017-09-20T13:07:27.064Z,7.37
2017-09-20T13:09:55.097Z,7.90
2017-09-20T13:12:27.153Z,6.50
2017-09-20T13:14:56.125Z,4.20
2017-09-20T13:17:24.141Z,4.40
2017-09-20T13:19:57.812Z,4.77
2017-09-20T13:22:25.853Z,4.40
2017-09-20T13:24:53.885Z,4.30
2017-09-20T13:27:21.937Z,4.83
2017-09-20T13:29:52.648Z,3.60
2017-09-20T13:32:25.390Z,4.60
2017-09-20T13:34:54.164Z,4.20
2017-09-20T13:37:26.688Z,5.50
2017-09-20T13:40:04.453Z,4.10
2017-09-20T13:42:35.555Z,3.67
2017-09-20T13:45:03.800Z,4.43
2017-09-20T13:47:31.864Z,4.17
2017-09-20T13:50:01.796Z,4.20
2017-09-20T13:52:30.832Z,4.00
2017-09-20T13:55:05.312Z,4.20
2017-09-20T13:57:34.332Z,3.80
2017-09-20T14:00:03.120Z,3.87
2017-09-20T14:02:39.312Z,3.80
2017-09-20T14:05:13.221Z,4.00
2017-09-20T14:07:44.374Z,4.60
2017-09-20T14:10:13.272Z,1.67
2017-09-20T14:12:46.688Z,2.90
2017-09-20T14:15:20.477Z,5.97
2017-09-20T14:17:49.480Z,7.27
2017-09-20T14:20:21.261Z,6.40
2017-09-20T14:22:51.992Z,5.73
2017-09-20T14:25:20.780Z,4.83
2017-09-20T14:27:52.736Z,4.87
2017-09-20T14:30:21.536Z,5.07
2017-09-20T14:32:50.332Z,4.60
2017-09-20T14:35:19.132Z,4.80
2017-09-20T14:37:49.096Z,5.07
2017-09-20T14:40:18.136Z,4.90
2017-09-20T14:42:53.016Z,5.00
2017-09-20T14:45:24.156Z,4.30
2017-09-20T14:47:52.208Z,5.20
2017-09-20T14:50:33.250Z,4.77
2017-09-20T14:53:20.756Z,4.90
2017-09-20T14:55:48.736Z,5.07
2017-09-20T14:58:17.543Z,5.17
2017-09-20T15:00:46.499Z,4.43
2017-09-20T15:03:15.292Z,4.50
2017-09-20T15:05:45.089Z,4.43
2017-09-20T15:08:16.863Z,5.00
2017-09-20T15:10:45.667Z,4.97
2017-09-20T15:13:13.684Z,5.93
2017-09-20T15:15:41.727Z,4.43
2017-09-20T15:18:11.676Z,5.90
2017-09-20T15:20:56.911Z,4.13
2017-09-20T15:23:36.875Z,5.47
2017-09-20T15:26:04.920Z,4.57
2017-09-20T15:28:32.944Z,6.33
2017-09-20T15:31:04.491Z,4.67
2017-09-20T15:33:32.521Z,3.40
2017-09-20T15:36:06.845Z,3.60
2017-09-20T15:38:36.832Z,2.63
2017-09-20T15:41:08.788Z,2.20
2017-09-20T15:43:36.852Z,2.10
2017-09-20T15:46:06.680Z,1.60
2017-09-20T15:48:35.632Z,1.52
2017-09-20T15:51:05.684Z,1.73
2017-09-20T15:53:35.420Z,31.08
2017-09-20T15:56:04.452Z,21.37
2017-09-20T15:58:33.458Z,16.77
2017-09-20T16:01:03.255Z,5.20
2017-09-20T16:03:31.283Z,2.15
2017-09-20T16:06:01.260Z,1.90
2017-09-20T16:08:31.967Z,2.28
2017-09-20T16:11:00.023Z,3.12
2017-09-20T16:13:29.802Z,3.08
2017-09-20T16:15:57.819Z,4.12
2017-09-20T16:18:25.851Z,3.40
2017-09-20T16:20:57.352Z,3.92
2017-09-20T16:23:27.359Z,3.73
2017-09-20T16:26:00.079Z,4.03
2017-09-20T16:28:36.903Z,4.70
2017-09-20T16:31:14.575Z,6.00
2017-09-20T16:33:47.791Z,9.17
2017-09-20T16:36:20.783Z,6.70
2017-09-20T16:38:52.263Z,5.22
2017-09-20T16:41:22.003Z,5.62
2017-09-20T16:43:53.543Z,5.37
2017-09-20T16:46:25.771Z,4.70
2017-09-20T16:48:54.303Z,6.05
2017-09-20T16:51:46.852Z,5.22
2017-09-20T16:54:14.907Z,6.72
2017-09-20T16:56:51.271Z,11.23
2017-09-20T16:59:23.635Z,9.15
2017-09-20T17:01:52.643Z,6.10
2017-09-20T17:04:20.911Z,5.28
2017-09-20T17:07:02.428Z,7.32
2017-09-20T17:09:33.731Z,7.65
2017-09-20T17:12:01.783Z,7.62
2017-09-20T17:14:32.514Z,7.20
2017-09-20T17:17:00.524Z,6.30
2017-09-20T17:19:32.639Z,6.82
2017-09-20T17:22:01.623Z,6.25
2017-09-20T17:24:29.655Z,8.15
2017-09-20T17:26:58.761Z,7.32
2017-09-20T17:29:32.055Z,8.15
2017-09-20T17:32:06.758Z,6.90
2017-09-20T17:34:35.963Z,7.35
2017-09-20T17:37:21.227Z,9.52
2017-09-20T17:39:51.187Z,7.22
2017-09-20T17:42:19.211Z,6.82
2017-09-20T17:44:47.294Z,6.80
2017-09-20T17:47:15.343Z,6.57
2017-09-20T17:49:45.163Z,7.40
2017-09-20T17:52:15.143Z,7.05
2017-09-20T17:54:55.562Z,7.70
2017-09-20T17:57:23.602Z,6.97
2017-09-20T17:59:51.618Z,6.78
2017-09-20T18:02:40.659Z,8.00
2017-09-20T18:05:12.691Z,9.10
2017-09-20T18:07:43.394Z,7.47
2017-09-20T18:10:13.439Z,8.65
2017-09-20T18:12:42.234Z,15.05
2017-09-20T18:15:14.779Z,8.75
2017-09-20T18:17:43.758Z,9.80
2017-09-20T18:20:11.786Z,7.95
2017-09-20T18:22:45.538Z,9.23
2017-09-20T18:25:13.572Z,11.80
2017-09-20T18:27:49.070Z,11.82
2017-09-20T18:30:17.867Z,12.40
2017-09-20T18:32:48.594Z,15.70
2017-09-20T18:35:17.414Z,10.50
2017-09-20T18:37:45.430Z,11.18
2017-09-20T18:40:19.138Z,10.30
2017-09-20T18:42:52.626Z,9.98
2017-09-20T18:45:20.683Z,11.50
2017-09-20T18:47:50.718Z,11.80
2017-09-20T18:50:18.787Z,14.50
2017-09-20T18:52:57.995Z,14.93
2017-09-20T18:55:26.026Z,14.07
2017-09-20T18:57:54.986Z,12.27
2017-09-20T19:00:24.966Z,13.07
2017-09-20T19:02:52.998Z,11.18
2017-09-20T19:05:21.962Z,11.02
2017-09-20T19:07:50.983Z,12.48
2017-09-20T19:10:19.966Z,11.50
2017-09-20T19:12:50.682Z,12.50
2017-09-20T19:15:22.462Z,11.48
2017-09-20T19:17:53.278Z,11.88
2017-09-20T19:20:21.314Z,12.15
2017-09-20T19:22:51.258Z,13.18
2017-09-20T19:25:20.271Z,13.03
2017-09-20T19:27:51.082Z,12.68
2017-09-20T19:30:21.114Z,13.20
2017-09-20T19:32:55.114Z,13.40
2017-09-20T19:35:25.150Z,13.35
2017-09-20T19:37:53.190Z,14.60
2017-09-20T19:43:16.175Z,13.13
2017-09-20T19:45:46.278Z,13.40
2017-09-20T19:48:14.298Z,11.65
2017-09-20T19:50:52.195Z,8.27
2017-09-20T19:53:21.135Z,8.65
2017-09-20T19:55:50.146Z,8.30
2017-09-20T19:58:21.402Z,11.18
2017-09-20T20:00:52.118Z,12.40
2017-09-20T20:03:21.122Z,13.32
2017-09-20T20:05:49.146Z,14.65
2017-09-20T20:08:18.181Z,13.68
2017-09-20T20:10:46.218Z,14.70
2017-09-20T20:13:15.257Z,14.77
2017-09-20T20:15:46.041Z,13.40
2017-09-20T20:18:15.997Z,12.60
2017-09-20T20:20:44.026Z,13.38
2017-09-20T20:23:22.350Z,15.05
2017-09-20T20:25:50.381Z,15.18
2017-09-20T20:28:18.421Z,15.93
2017-09-20T20:30:46.490Z,15.90
2017-09-20T20:33:15.474Z,16.33
2017-09-20T20:35:48.158Z,15.27
2017-09-20T20:38:16.193Z,14.20
2017-09-20T20:40:44.229Z,13.18
2017-09-20T20:43:12.294Z,12.50
2017-09-20T20:45:41.249Z,11.82
2017-09-20T20:48:09.313Z,11.55
2017-09-20T20:50:37.401Z,11.52
2017-09-20T20:53:06.389Z,12.68
2017-09-20T20:55:41.290Z,11.95
2017-09-20T20:58:11.337Z,12.65
2017-09-20T21:00:39.361Z,12.63
2017-09-20T21:03:09.334Z,14.35
2017-09-20T21:05:38.133Z,11.50
2017-09-20T21:08:06.173Z,11.35
2017-09-20T21:10:34.213Z,10.48
2017-09-20T21:13:06.105Z,11.18
2017-09-20T21:15:35.117Z,12.60
2017-09-20T21:18:03.950Z,12.93
2017-09-20T21:20:32.997Z,11.88
2017-09-20T21:23:05.009Z,14.73
2017-09-20T21:25:35.012Z,13.75
2017-09-20T21:28:05.697Z,15.25
2017-09-20T21:30:33.728Z,15.35
2017-09-20T21:33:02.797Z,13.52
2017-09-20T21:35:32.900Z,14.35
2017-09-20T21:38:04.745Z,13.40
2017-09-20T21:40:33.741Z,14.00
2017-09-20T21:43:06.505Z,15.20
2017-09-20T21:45:34.552Z,16.30
2017-09-20T21:48:03.581Z,14.73
2017-09-20T21:50:36.265Z,14.98
2017-09-20T21:53:05.996Z,15.43
2017-09-20T21:55:34.952Z,16.10
2017-09-20T21:58:03.948Z,14.45
2017-09-20T22:00:32.960Z,15.38
2017-09-20T22:03:01.768Z,14.38
2017-09-20T22:05:29.828Z,16.30
2017-09-20T22:07:58.616Z,16.30
2017-09-20T22:10:34.469Z,17.10
2017-09-20T22:13:04.248Z,17.33
2017-09-20T22:15:44.120Z,16.70
2017-09-20T22:18:25.006Z,17.95
2017-09-20T22:21:06.953Z,17.50
2017-09-20T22:23:46.848Z,16.08
2017-09-20T22:26:26.812Z,15.50
2017-09-20T22:28:55.844Z,14.75
2017-09-20T22:31:29.393Z,15.20
2017-09-20T22:33:58.348Z,14.35
2017-09-20T22:36:27.352Z,15.02
2017-09-20T22:38:56.169Z,16.00
2017-09-20T22:41:24.192Z,18.37
2017-09-20T22:43:54.232Z,18.10
2017-09-20T22:46:22.252Z,16.73
2017-09-20T22:48:52.207Z,16.90
2017-09-20T22:51:20.999Z,17.20
2017-09-20T22:53:49.808Z,18.30
2017-09-20T22:56:17.853Z,16.80
2017-09-20T22:58:46.843Z,17.62
2017-09-20T23:01:15.648Z,20.70
2017-09-20T23:03:46.367Z,20.10
2017-09-20T23:06:17.696Z,19.42
2017-09-20T23:08:50.383Z,20.45
2017-09-20T23:11:18.431Z,19.08
2017-09-20T23:13:47.471Z,18.20
2017-09-20T23:16:16.264Z,19.95
2017-09-20T23:18:44.352Z,19.23
2017-09-20T23:21:12.371Z,19.02
2017-09-20T23:23:41.399Z,19.17
2017-09-20T23:26:11.999Z,17.42
2017-09-20T23:28:40.999Z,17.50
2017-09-20T23:31:20.111Z,19.75
2017-09-20T23:33:49.111Z,18.95
2017-09-20T23:36:18.131Z,17.45
2017-09-20T23:38:46.971Z,17.98
2017-09-20T23:41:17.019Z,18.12
2017-09-20T23:43:47.747Z,17.70
2017-09-20T23:46:15.763Z,17.10
2017-09-20T23:48:46.963Z,18.73
2017-09-20T23:51:15.751Z,19.00
2017-09-20T23:53:44.543Z,18.20
2017-09-20T23:56:13.351Z,17.25
2017-09-20T23:58:41.371Z,18.25
